Etusivu
METAR-TAF:

METAR-TAF

Lentoasemat :

Mitiga International Airport

Tripoli, Libya

Leveyspiiri: 32-54N, Pituuspiiri: 13-17E, korkeus merenpinnasta: 11 m

METAR: puuttuu

Aika: 06:36 (04:36 UTC)

Sääennuste

Tämä raportti tehtiin 11 tuntia ja 36 minuuttia sitten, kello 17.00 UTC
Ennuste voimassa 11. päivästä klo 18 UTC - 12. päivään klo 18 UTC
Tuuli 10 kn lounaasta
Näkyvyys: 8000 m
Hajanaisia pilviä 2300 ft:n korkeudessa

TAF: HLLM 111700Z 1118/1218 32010KT 9999 SCT023 BECMG1206/1208 22010KT 8000 NSC

Säähavainnot ja -ennusteet yli 4000 lentoasemalta (METAR- ja TAF-raportit).

Käytössä olevat sääasemat on merkitty karttaan keltaisilla ja punaisilla pisteillä.

Aseta hiiri pisteen päälle nähdäksesi sääaseman nimen.

Klikkaa sitten nähdäksesi säähavainnot ja -ennusteet.

Kartan vaihtaminen: klikkaa mustalla rastilla varustettuja vihreitä pisteitä, niin voit zoomata sisään; viivalla varustettua vihreää pistettä, niin voit zoomata ulos tai vihreitä nuolia, niin pääset viereisille kartoille.


METAR-TAF: